Station: Badgingarra  

  Atmospheric Gas Attenuation - ITU Rec 676-11   ----------------- dB/100km -----------------
Date Time Temp RH % AH g/m3 Dew Point Wind Direction Speed kph Gust kph Barometer mB Rainfall Since 9am 24GHz 47GHz 76GHz 122GHz 134GHz 241GHz
07/05 11:30 19.9 42 7.22 6.6 35 46 1013.1 0 16.4 22.2 31.9 83.5 74.7 256.1
07/05 11:20 20.2 43 7.52 7.2 32 37 1013.1 0 17.0 22.5 32.8 86.0 77.9 267.3
07/05 11:10 19.7 42 7.13 6.7 32 39 1013.1 0 16.2 22.1 31.7 82.8 73.8 253.1
07/05 11:00 19.8 44 7.51 7.2 33 46 1013.1 0 17.0 22.6 33.0 86.3 78.1 268.2
07/05 10:50 19.7 44 7.47 7.1 37 44 1013.1 0 16.9 22.6 32.9 86.0 77.8 266.9
07/05 10:40 19.2 45 7.42 7 32 37 1013.1 0 16.8 22.6 32.9 86.1 77.7 266.5
07/05 10:30 19.2 46 7.58 7.3 32 39 1013.1 0 17.2 22.9 33.5 87.6 79.5 273.1
07/05 10:20 18.6 48 7.64 7.6 32 37 1013.1 0 17.3 23.1 33.9 88.8 80.9 277.7
07/05 10:10 18.2 49 7.62 7.3 28 32 1013.1 0 17.3 23.2 34.0 89.1 81.0 278.2
07/05 10:00 17.8 50 7.59 7.2 33 43 1013.1 0 17.3 23.2 34.1 89.2 81.1 278.3
07/05 09:50 17.3 52 7.66 7.3 35 41 1013.1 0 17.4 23.5 34.6 90.5 82.4 283.0
07/05 09:40 16.9 52 7.48 7.2 39 43 1013.1 0 17.1 23.3 34.1 89.2 80.7 276.8
07/05 09:30 16.7 54 7.67 7.4 35 43 1013.1 0 17.5 23.6 34.8 91.3 83.2 285.6
07/05 09:20 16.3 53 7.35 6.9 35 41 1013.1 0 16.8 23.3 33.8 88.5 79.7 273.3
07/05 09:10 16 56 7.63 7.2 28 33 1013.1 0 17.4 23.8 35.0 91.7 83.4 286.4
07/05 09:00 15.8 57 7.67 7.3 30 39 1013.1 0 17.5 23.9 35.2 92.3 84.1 288.8
07/05 08:50 15.3 58 7.57 7.1 30 33 1013.1 0 17.3 23.9 35.1 91.9 83.4 286.3
07/05 08:40 14.9 58 7.39 6.9 28 35 1013.1 0 17.0 23.7 34.6 90.5 81.6 279.8
07/05 08:30 14.3 61 7.49 6.9 33 41 1013.1 0 17.2 24.0 35.2 92.2 83.5 286.3
07/05 08:20 13.7 63 7.46 6.8 32 39 1013.1 0 17.2 24.1 35.4 92.6 83.8 287.2
07/05 08:10 13.2 64 7.35 6.5 30 35 1013.1 0 16.9 24.1 35.2 92.0 82.9 284.1
07/05 08:00 12.9 65 7.33 6.5 30 37 1013.1 0 16.9 24.1 35.2 92.2 83.0 284.3
07/05 07:50 12.3 67 7.28 6.3 24 30 1013.1 0 16.8 24.2 35.3 92.4 82.9 284.2
07/05 07:40 11.9 67 7.1 6.1 22 28 1013.1 0 16.5 24.0 34.8 91.0 81.1 277.5
07/05 07:30 11.6 69 7.17 6.1 26 33 1013.1 0 16.6 24.2 35.2 92.0 82.3 281.7
07/05 07:20 11.2 71 7.2 6.1 24 30 1013.1 0 16.7 24.4 35.5 92.8 83.1 284.5
07/05 07:10 10.8 72 7.12 5.9 24 32 1013.1 0 16.6 24.4 35.3 92.4 82.5 282.3
07/05 07:00 10.5 73 7.08 5.9 22 28 1013.1 0 16.5 24.4 35.3 92.4 82.3 281.5
07/05 06:50 10.6 71 6.93 5.7 22 26 1013.1 0 16.2 24.1 34.7 90.7 80.2 274.4
07/05 06:40 10.7 72 7.07 5.8 24 28 1013.1 0 16.5 24.3 35.2 92.0 81.9 280.4
07/05 06:30 10.8 72 7.12 6 24 32 1013.1 0 16.6 24.4 35.3 92.4 82.5 282.3
07/05 06:20 10.8 72 7.12 5.9 24 28 1013.1 0 16.6 24.4 35.3 92.4 82.5 282.3
07/05 06:10 10.8 72 7.12 5.9 24 32 1013.1 0 16.6 24.4 35.3 92.4 82.5 282.3
07/05 06:00 10.5 73 7.08 5.9 20 24 1013.1 0 16.5 24.4 35.3 92.4 82.3 281.5
07/05 05:50 10.6 71 6.93 5.7 20 24 1013.1 0 16.2 24.1 34.7 90.7 80.2 274.4
07/05 05:40 10.8 71 7.02 5.7 22 26 1013.1 0 16.3 24.2 34.9 91.4 81.2 277.8
07/05 05:30 10.9 71 7.06 5.9 20 26 1013.1 0 16.4 24.2 35.0 91.7 81.6 279.2
07/05 05:20 11.2 70 7.1 5.9 22 26 1013.1 0 16.5 24.2 35.1 91.8 81.8 280.0
07/05 05:10 11.3 70 7.14 6 22 26 1013.1 0 16.6 24.3 35.2 92.1 82.2 281.4
07/05 05:00 11.5 69 7.13 6 20 28 1013.1 0 16.6 24.2 35.0 91.7 81.9 280.3
07/05 04:50 11.6 68 7.07 5.9 22 26 1013.1 0 16.4 24.1 34.8 91.0 81.0 277.2
07/05 04:40 11.7 68 7.11 6 20 26 1013.1 0 16.5 24.1 34.9 91.3 81.4 278.7
07/05 04:30 11.8 68 7.16 6.1 22 35 1013.1 0 16.6 24.1 35.0 91.7 81.9 280.6
07/05 04:20 12.1 66 7.08 5.9 22 28 1013.1 0 16.4 23.9 34.6 90.5 80.6 275.9
07/05 04:10 12.2 66 7.12 6 22 24 1013.1 0 16.5 24.0 34.7 90.8 81.0 277.4
07/05 04:00 12.2 66 7.12 6 24 33 1013.1 0 16.5 24.0 34.7 90.8 81.0 277.4
07/05 03:50 12.2 66 7.12 6 22 26 1013.1 0 16.5 24.0 34.7 90.8 81.0 277.4
07/05 03:40 12.2 66 7.12 6 22 26 1013.1 0 16.5 24.0 34.7 90.8 81.0 277.4
07/05 03:30 12.3 66 7.17 6.1 24 30 1013.1 0 16.6 24.0 34.9 91.2 81.5 279.2
07/05 03:20 12.4 65 7.1 6 22 26 1013.1 0 16.4 23.9 34.5 90.4 80.5 275.8
07/05 03:10 12.5 65 7.15 6.1 24 30 1013.1 0 16.6 23.9 34.7 90.8 81.1 277.6
07/05 03:00 12.6 64 7.08 6 24 32 1013.1 0 16.4 23.8 34.4 90.0 80.1 274.2
07/05 02:50 12.6 63 6.97 5.9 20 22 1013.1 0 16.2 23.6 34.0 88.8 78.7 269.3
07/05 02:40 12.8 63 7.06 6.1 24 32 1013.1 0 16.3 23.7 34.2 89.5 79.6 272.6
07/05 02:30 12.8 64 7.17 6.2 26 33 1013.1 0 16.6 23.9 34.6 90.7 81.0 277.5
07/05 02:20 12.9 63 7.1 6 24 30 1013.1 0 16.4 23.8 34.3 89.8 80.0 274.0
07/05 02:10 13.1 62 7.08 6 30 35 1013.1 0 16.4 23.7 34.2 89.4 79.6 272.5
07/05 02:00 13.3 62 7.16 6.2 28 43 1013.1 0 16.5 23.8 34.4 90.0 80.4 275.3
07/05 01:50 13.3 61 7.05 6.1 32 37 1013.1 0 16.3 23.6 34.0 88.9 79.0 270.5
07/05 01:40 13.3 61 7.05 6.1 32 35 1013.1 0 16.3 23.6 34.0 88.9 79.0 270.5
07/05 01:30 13.4 62 7.21 6.3 28 41 1013.1 0 16.6 23.8 34.5 90.4 80.9 277.2
07/05 01:20 13.4 61 7.09 6.2 26 33 1013.1 0 16.4 23.6 34.1 89.2 79.4 271.9
07/05 01:10 13.5 61 7.14 6.3 26 28 1013.1 0 16.5 23.7 34.2 89.6 79.9 273.7
07/05 01:00 13.6 61 7.18 6.2 28 41 1013.1 0 16.6 23.7 34.3 89.8 80.3 275.2
07/05 00:50 13.8 61 7.27 6.4 30 33 1013.1 0 16.8 23.8 34.6 90.5 81.2 278.4
07/05 00:40 13.8 59 7.03 6.1 28 35 1013.1 0 16.2 23.4 33.7 88.1 78.2 267.9
07/05 00:30 13.8 61 7.27 6.4 26 33 1013.1 0 16.8 23.8 34.6 90.5 81.2 278.4
07/05 00:20 13.9 59 7.07 6.2 28 35 1013.1 0 16.3 23.5 33.8 88.4 78.6 269.3
07/05 00:10 14 59 7.12 6.3 26 30 1013.1 0 16.4 23.5 33.9 88.8 79.2 271.2
07/05 00:00 14.2 59 7.2 6.3 26 33 1013.1 0 16.6 23.6 34.2 89.4 80.0 274.0
06/05 23:50 14.3 60 7.37 6.6 28 33 1013.1 0 16.9 23.8 34.8 91.0 82.0 281.1
06/05 23:40 14.4 59 7.29 6.5 30 35 1013.1 0 16.8 23.7 34.4 90.1 80.9 277.2
06/05 23:30 14.5 59 7.34 6.6 26 37 1013.1 0 16.9 23.7 34.6 90.5 81.4 279.0
06/05 23:20 14.7 58 7.3 6.5 28 33 1013.1 0 16.8 23.6 34.3 89.8 80.7 276.6
06/05 23:10 14.9 58 7.39 6.7 24 32 1013.1 0 17.0 23.7 34.6 90.5 81.6 279.8
06/05 23:00 15 57 7.31 6.6 26 35 1013.1 0 16.8 23.5 34.2 89.6 80.5 276.0
06/05 22:50 14.9 58 7.39 6.7 24 26 1013.1 0 17.0 23.7 34.6 90.5 81.6 279.8
06/05 22:40 15.3 57 7.44 6.8 30 35 1013.1 0 17.1 23.7 34.6 90.6 81.8 280.6
06/05 22:30 14.9 58 7.39 6.7 26 35 1013.1 0 17.0 23.7 34.6 90.5 81.6 279.8
06/05 22:20 15 58 7.44 6.8 24 32 1013.1 0 17.1 23.7 34.7 90.9 82.1 281.7
06/05 22:10 15 58 7.44 6.8 26 30 1013.1 0 17.1 23.7 34.7 90.9 82.1 281.7
06/05 22:00 15.2 58 7.53 7 26 35 1013.1 0 17.2 23.8 35.0 91.6 83.0 284.9
06/05 21:50 15.1 58 7.48 6.9 24 30 1013.1 0 17.1 23.8 34.8 91.2 82.5 283.1
06/05 21:40 15.3 57 7.44 6.8 28 30 1013.1 0 17.1 23.7 34.6 90.6 81.8 280.6
06/05 21:30 15.6 56 7.45 6.9 28 35 1013.1 0 17.1 23.6 34.5 90.3 81.6 280.0
06/05 21:20 15.6 56 7.45 6.8 28 30 1013.1 0 17.1 23.6 34.5 90.3 81.6 280.0
06/05 21:10 15.7 56 7.49 6.9 26 30 1013.1 0 17.1 23.6 34.6 90.6 82.0 281.4
06/05 21:00 15.9 55 7.45 6.9 26 39 1013.1 0 17.0 23.5 34.4 90.0 81.3 278.9
06/05 20:50 15.9 54 7.31 6.8 22 24 1013.1 0 16.8 23.3 33.8 88.6 79.6 272.9
06/05 20:40 15.7 55 7.36 6.7 20 22 1013.1 0 16.9 23.4 34.1 89.3 80.4 275.8
06/05 20:30 16.2 54 7.45 6.9 22 30 1013.1 0 17.0 23.4 34.2 89.6 81.0 277.9
06/05 20:20 16.4 53 7.4 6.8 24 28 1013.1 0 16.9 23.3 34.0 88.9 80.2 275.1
06/05 20:10 16.4 53 7.4 6.8 20 30 1013.1 0 16.9 23.3 34.0 88.9 80.2 275.1
06/05 20:00 16.6 52 7.35 6.7 22 28 1013.1 0 16.8 23.2 33.7 88.2 79.4 272.3
06/05 19:50 16.6 52 7.35 6.7 20 24 1013.1 0 16.8 23.2 33.7 88.2 79.4 272.3
06/05 19:40 16.8 52 7.43 6.9 19 20 1013.1 0 17.0 23.3 33.9 88.8 80.2 275.0
06/05 19:30 16.9 52 7.48 7 22 28 1013.1 0 17.1 23.3 34.1 89.2 80.7 276.8
06/05 19:20 16.9 52 7.48 7 20 22 1013.1 0 17.1 23.3 34.1 89.2 80.7 276.8
06/05 19:10 17.1 51 7.42 7.1 22 26 1013.1 0 16.9 23.2 33.8 88.4 79.7 273.5
06/05 19:00 17.2 52 7.61 7.3 19 24 1013.1 0 17.3 23.4 34.4 90.1 81.9 281.3

Last Refresh: 07-May-2026 13:13:09

Bureau of Meteorology